NDF57EL EDDC-EDDH
Flight info
| Callsign | NDF57EL |
|---|---|
| Flight time | 0h 51m |
| Altitude | 28000 |
| Route | OSKAN7W OSKAN M748 RARUP RARUP3P |
| Aircraft | A20N/M-SDE2E3FGHIRWXY/LB1 |
Departure
| Time | 2026-04-24 22:13 |
|---|---|
| Airport | Dresden Airport (EDDC) |
Arrival
| Time | 2026-04-24 23:04 |
|---|---|
| Airport | Hamburg Helmut Schmidt Airport (EDDH) |
| Time | Latitude | Longitude | Altitude | Speed | Heading |
|---|---|---|---|---|---|
| 2026-04-24 21:40 | 51.12596 | 13.76606 | 753 ft | 0 kts | 220° |
| 2026-04-24 21:41 | 51.12591 | 13.76599 | 753 ft | 0 kts | 221° |
| 2026-04-24 21:41 | 51.12596 | 13.76606 | 753 ft | 0 kts | 220° |
| 2026-04-24 21:58 | 51.12603 | 13.76615 | 753 ft | 4 kts | 220° |
| 2026-04-24 21:58 | 51.12623 | 13.76644 | 749 ft | 4 kts | 220° |
| 2026-04-24 21:58 | 51.12639 | 13.76666 | 749 ft | 4 kts | 219° |
| 2026-04-24 21:59 | 51.12658 | 13.76690 | 748 ft | 4 kts | 254° |
| 2026-04-24 21:59 | 51.12653 | 13.76707 | 748 ft | 4 kts | 306° |
| 2026-04-24 21:59 | 51.12644 | 13.76727 | 751 ft | 0 kts | 312° |
| 2026-04-24 22:05 | 51.12662 | 13.76694 | 752 ft | 10 kts | 312° |
| 2026-04-24 22:05 | 51.12705 | 13.76613 | 749 ft | 11 kts | 310° |
| 2026-04-24 22:06 | 51.12755 | 13.76523 | 749 ft | 3 kts | 311° |
| 2026-04-24 22:06 | 51.12793 | 13.76467 | 753 ft | 12 kts | 329° |
| 2026-04-24 22:06 | 51.12874 | 13.76512 | 752 ft | 15 kts | 41° |
| 2026-04-24 22:06 | 51.12946 | 13.76603 | 749 ft | 9 kts | 38° |
| 2026-04-24 22:07 | 51.13010 | 13.76690 | 751 ft | 16 kts | 43° |
| 2026-04-24 22:07 | 51.13098 | 13.76813 | 749 ft | 17 kts | 40° |
| 2026-04-24 22:07 | 51.13219 | 13.76980 | 745 ft | 27 kts | 41° |
| 2026-04-24 22:07 | 51.13356 | 13.77169 | 738 ft | 29 kts | 40° |
| 2026-04-24 22:08 | 51.13521 | 13.77393 | 726 ft | 31 kts | 40° |
| 2026-04-24 22:08 | 51.13705 | 13.77647 | 717 ft | 38 kts | 40° |
| 2026-04-24 22:08 | 51.13907 | 13.77924 | 716 ft | 35 kts | 41° |
| 2026-04-24 22:08 | 51.14065 | 13.78141 | 718 ft | 27 kts | 40° |
| 2026-04-24 22:09 | 51.14184 | 13.78302 | 702 ft | 20 kts | 41° |
| 2026-04-24 22:09 | 51.14256 | 13.78351 | 701 ft | 12 kts | 348° |
| 2026-04-24 22:09 | 51.14264 | 13.78347 | 704 ft | 0 kts | 338° |
| 2026-04-24 22:09 | 51.14265 | 13.78346 | 704 ft | 1 kts | 334° |
| 2026-04-24 22:10 | 51.14268 | 13.78341 | 705 ft | 0 kts | 320° |
| 2026-04-24 22:10 | 51.14271 | 13.78337 | 701 ft | 3 kts | 319° |
| 2026-04-24 22:10 | 51.14315 | 13.78262 | 699 ft | 13 kts | 311° |
| 2026-04-24 22:10 | 51.14363 | 13.78163 | 705 ft | 10 kts | 303° |
| 2026-04-24 22:11 | 51.14363 | 13.78079 | 700 ft | 0 kts | 217° |
| 2026-04-24 22:12 | 51.14362 | 13.78077 | 701 ft | 2 kts | 217° |
| 2026-04-24 22:12 | 51.14100 | 13.77721 | 716 ft | 105 kts | 221° |
| 2026-04-24 22:13 | 51.13349 | 13.76693 | 961 ft | 166 kts | 220° |
| 2026-04-24 22:13 | 51.12401 | 13.75498 | 1933 ft | 185 kts | 221° |
| 2026-04-24 22:13 | 51.11286 | 13.74221 | 2862 ft | 208 kts | 218° |
| 2026-04-24 22:13 | 51.10058 | 13.72770 | 3769 ft | 233 kts | 224° |
| 2026-04-24 22:14 | 51.08765 | 13.70981 | 4702 ft | 257 kts | 225° |
| 2026-04-24 22:14 | 51.07368 | 13.69106 | 5595 ft | 268 kts | 224° |
| 2026-04-24 22:14 | 51.06159 | 13.66869 | 6440 ft | 269 kts | 246° |
| 2026-04-24 22:14 | 51.05651 | 13.64057 | 6827 ft | 264 kts | 271° |
| 2026-04-24 22:15 | 51.05983 | 13.61245 | 7018 ft | 260 kts | 298° |
| 2026-04-24 22:15 | 51.07151 | 13.59090 | 7707 ft | 261 kts | 327° |
| 2026-04-24 22:15 | 51.08819 | 13.58160 | 9176 ft | 259 kts | 352° |
| 2026-04-24 22:15 | 51.10627 | 13.58436 | 10534 ft | 270 kts | 15° |
| 2026-04-24 22:16 | 51.12344 | 13.59994 | 11304 ft | 303 kts | 37° |
| 2026-04-24 22:16 | 51.13927 | 13.62437 | 11931 ft | 328 kts | 35° |
| 2026-04-24 22:16 | 51.15963 | 13.64129 | 12804 ft | 334 kts | 13° |
| 2026-04-24 22:16 | 51.18264 | 13.64529 | 13927 ft | 336 kts | 356° |
| 2026-04-24 22:17 | 51.20598 | 13.64100 | 14947 ft | 339 kts | 347° |
| 2026-04-24 22:17 | 51.22946 | 13.63532 | 16033 ft | 345 kts | 350° |
| 2026-04-24 22:17 | 51.25356 | 13.63198 | 17093 ft | 351 kts | 353° |
| 2026-04-24 22:17 | 51.27784 | 13.63041 | 18118 ft | 357 kts | 354° |
| 2026-04-24 22:18 | 51.30292 | 13.62973 | 19015 ft | 363 kts | 355° |
| 2026-04-24 22:18 | 51.32835 | 13.62941 | 19912 ft | 368 kts | 355° |
| 2026-04-24 22:18 | 51.35414 | 13.62918 | 20797 ft | 373 kts | 355° |
| 2026-04-24 22:18 | 51.38025 | 13.62891 | 21667 ft | 378 kts | 355° |
| 2026-04-24 22:19 | 51.40670 | 13.62859 | 22523 ft | 383 kts | 355° |
| 2026-04-24 22:19 | 51.43343 | 13.62694 | 23368 ft | 385 kts | 348° |
| 2026-04-24 22:19 | 51.45927 | 13.61628 | 24121 ft | 383 kts | 335° |
| 2026-04-24 22:19 | 51.48258 | 13.59610 | 24891 ft | 381 kts | 322° |
| 2026-04-24 22:20 | 51.50261 | 13.56914 | 25664 ft | 381 kts | 316° |
| 2026-04-24 22:20 | 51.52258 | 13.54074 | 26367 ft | 385 kts | 316° |
| 2026-04-24 22:20 | 51.54270 | 13.51214 | 27082 ft | 388 kts | 316° |
| 2026-04-24 22:20 | 51.56302 | 13.48327 | 27743 ft | 391 kts | 315° |
| 2026-04-24 22:21 | 51.58342 | 13.45425 | 28023 ft | 393 kts | 315° |
| 2026-04-24 22:21 | 51.62435 | 13.39594 | 28095 ft | 393 kts | 315° |
| 2026-04-24 22:22 | 51.66525 | 13.33751 | 28099 ft | 393 kts | 315° |
| 2026-04-24 22:22 | 51.70578 | 13.27941 | 28102 ft | 393 kts | 315° |
| 2026-04-24 22:23 | 51.74660 | 13.22070 | 28102 ft | 393 kts | 315° |
| 2026-04-24 22:23 | 51.78744 | 13.16183 | 28129 ft | 395 kts | 315° |
| 2026-04-24 22:24 | 51.82841 | 13.10260 | 28097 ft | 395 kts | 315° |
| 2026-04-24 22:24 | 51.86908 | 13.04370 | 28094 ft | 395 kts | 315° |
| 2026-04-24 22:25 | 51.90999 | 12.98433 | 28087 ft | 395 kts | 315° |
| 2026-04-24 22:25 | 51.95091 | 12.92478 | 28098 ft | 395 kts | 315° |
| 2026-04-24 22:26 | 51.99173 | 12.86521 | 28095 ft | 395 kts | 315° |
| 2026-04-24 22:26 | 52.03235 | 12.80584 | 28095 ft | 397 kts | 315° |
| 2026-04-24 22:27 | 52.07331 | 12.74581 | 28101 ft | 397 kts | 314° |
| 2026-04-24 22:27 | 52.11426 | 12.68555 | 28088 ft | 397 kts | 315° |
| 2026-04-24 22:28 | 52.15516 | 12.62523 | 28095 ft | 397 kts | 315° |
| 2026-04-24 22:28 | 52.19603 | 12.56482 | 28087 ft | 397 kts | 315° |
| 2026-04-24 22:29 | 52.25703 | 12.47438 | 28104 ft | 396 kts | 313° |
| 2026-04-24 22:29 | 52.29494 | 12.40928 | 28104 ft | 397 kts | 310° |
| 2026-04-24 22:30 | 52.33305 | 12.34386 | 28098 ft | 398 kts | 313° |
| 2026-04-24 22:30 | 52.37459 | 12.28386 | 28111 ft | 398 kts | 315° |
| 2026-04-24 22:31 | 52.41605 | 12.22409 | 28096 ft | 397 kts | 315° |
| 2026-04-24 22:31 | 52.45721 | 12.16453 | 28097 ft | 397 kts | 315° |
| 2026-04-24 22:32 | 52.49861 | 12.10452 | 28093 ft | 397 kts | 315° |
| 2026-04-24 22:32 | 52.54018 | 12.04461 | 28099 ft | 398 kts | 316° |
| 2026-04-24 22:33 | 52.58211 | 11.98508 | 28112 ft | 398 kts | 316° |
| 2026-04-24 22:33 | 52.62337 | 11.92517 | 28094 ft | 398 kts | 315° |
| 2026-04-24 22:34 | 52.66662 | 11.86776 | 28101 ft | 399 kts | 319° |
| 2026-04-24 22:34 | 52.71056 | 11.81194 | 28097 ft | 399 kts | 319° |
| 2026-04-24 22:35 | 52.75447 | 11.75601 | 28097 ft | 399 kts | 319° |
| 2026-04-24 22:35 | 52.79838 | 11.69999 | 28097 ft | 399 kts | 319° |
| 2026-04-24 22:36 | 52.84204 | 11.64418 | 28100 ft | 401 kts | 319° |
| 2026-04-24 22:36 | 52.88618 | 11.58765 | 28102 ft | 401 kts | 319° |
| 2026-04-24 22:37 | 52.93020 | 11.53115 | 27985 ft | 399 kts | 319° |
| 2026-04-24 22:37 | 52.95216 | 11.50291 | 27577 ft | 399 kts | 319° |
| 2026-04-24 22:37 | 52.97405 | 11.47473 | 27057 ft | 397 kts | 319° |
| 2026-04-24 22:38 | 52.99573 | 11.44679 | 26545 ft | 393 kts | 319° |
| 2026-04-24 22:38 | 53.01698 | 11.41937 | 26046 ft | 391 kts | 319° |
| 2026-04-24 22:38 | 53.03841 | 11.39168 | 25557 ft | 389 kts | 319° |
| 2026-04-24 22:38 | 53.05973 | 11.36409 | 25070 ft | 387 kts | 319° |
| 2026-04-24 22:39 | 53.08094 | 11.33674 | 24595 ft | 385 kts | 319° |
| 2026-04-24 22:39 | 53.10210 | 11.30951 | 24125 ft | 383 kts | 319° |
| 2026-04-24 22:39 | 53.12339 | 11.28290 | 23663 ft | 383 kts | 324° |
| 2026-04-24 22:39 | 53.14563 | 11.25857 | 23100 ft | 382 kts | 325° |
| 2026-04-24 22:40 | 53.16765 | 11.23409 | 22572 ft | 379 kts | 324° |
| 2026-04-24 22:40 | 53.18926 | 11.20949 | 22042 ft | 375 kts | 323° |
| 2026-04-24 22:40 | 53.21033 | 11.18514 | 21531 ft | 372 kts | 324° |
| 2026-04-24 22:40 | 53.23151 | 11.16062 | 21034 ft | 369 kts | 324° |
| 2026-04-24 22:41 | 53.25254 | 11.13623 | 20537 ft | 367 kts | 324° |
| 2026-04-24 22:41 | 53.27339 | 11.11196 | 20047 ft | 364 kts | 324° |
| 2026-04-24 22:41 | 53.29409 | 11.08775 | 19562 ft | 362 kts | 324° |
| 2026-04-24 22:41 | 53.31460 | 11.06370 | 19087 ft | 359 kts | 324° |
| 2026-04-24 22:42 | 53.33499 | 11.03974 | 18614 ft | 357 kts | 323° |
| 2026-04-24 22:42 | 53.35483 | 11.01502 | 18101 ft | 354 kts | 319° |
| 2026-04-24 22:42 | 53.37288 | 10.99167 | 17612 ft | 350 kts | 319° |
| 2026-04-24 22:42 | 53.39200 | 10.96771 | 17084 ft | 346 kts | 321° |
| 2026-04-24 22:43 | 53.41146 | 10.94426 | 16590 ft | 343 kts | 322° |
| 2026-04-24 22:43 | 53.43092 | 10.92142 | 16080 ft | 339 kts | 322° |
| 2026-04-24 22:43 | 53.45023 | 10.89903 | 15580 ft | 336 kts | 323° |
| 2026-04-24 22:43 | 53.46942 | 10.87687 | 15076 ft | 334 kts | 323° |
| 2026-04-24 22:44 | 53.48844 | 10.85488 | 14594 ft | 331 kts | 323° |
| 2026-04-24 22:44 | 53.50696 | 10.83233 | 14135 ft | 327 kts | 316° |
| 2026-04-24 22:44 | 53.52113 | 10.80284 | 13630 ft | 323 kts | 304° |
| 2026-04-24 22:44 | 53.53393 | 10.77195 | 13102 ft | 321 kts | 305° |
| 2026-04-24 22:45 | 53.54653 | 10.74178 | 12596 ft | 319 kts | 305° |
| 2026-04-24 22:45 | 53.55930 | 10.71155 | 12082 ft | 316 kts | 306° |
| 2026-04-24 22:45 | 53.57202 | 10.68164 | 11591 ft | 313 kts | 306° |
| 2026-04-24 22:45 | 53.58469 | 10.65195 | 11234 ft | 311 kts | 306° |
| 2026-04-24 22:46 | 53.59727 | 10.62241 | 11120 ft | 311 kts | 306° |
| 2026-04-24 22:46 | 53.60987 | 10.59275 | 11093 ft | 311 kts | 306° |
| 2026-04-24 22:46 | 53.62233 | 10.56337 | 10891 ft | 304 kts | 306° |
| 2026-04-24 22:46 | 53.63441 | 10.53488 | 10530 ft | 294 kts | 306° |
| 2026-04-24 22:47 | 53.64612 | 10.50726 | 10173 ft | 285 kts | 306° |
| 2026-04-24 22:47 | 53.65745 | 10.48053 | 9798 ft | 276 kts | 306° |
| 2026-04-24 22:47 | 53.66831 | 10.45485 | 9409 ft | 269 kts | 306° |
| 2026-04-24 22:47 | 53.67903 | 10.42952 | 9020 ft | 263 kts | 306° |
| 2026-04-24 22:48 | 53.68953 | 10.40467 | 8632 ft | 257 kts | 306° |
| 2026-04-24 22:48 | 53.69989 | 10.38009 | 8252 ft | 258 kts | 306° |
| 2026-04-24 22:48 | 53.71026 | 10.35540 | 7872 ft | 256 kts | 306° |
| 2026-04-24 22:48 | 53.72048 | 10.33104 | 7499 ft | 255 kts | 306° |
| 2026-04-24 22:49 | 53.73075 | 10.30654 | 7150 ft | 255 kts | 306° |
| 2026-04-24 22:49 | 53.74092 | 10.28224 | 6794 ft | 252 kts | 306° |
| 2026-04-24 22:49 | 53.75094 | 10.25827 | 6427 ft | 254 kts | 306° |
| 2026-04-24 22:49 | 53.76103 | 10.23408 | 6048 ft | 250 kts | 306° |
| 2026-04-24 22:50 | 53.77098 | 10.21018 | 5664 ft | 248 kts | 306° |
| 2026-04-24 22:50 | 53.78089 | 10.18633 | 5301 ft | 246 kts | 306° |
| 2026-04-24 22:50 | 53.79064 | 10.16285 | 5154 ft | 246 kts | 306° |
| 2026-04-24 22:50 | 53.80051 | 10.13914 | 5121 ft | 246 kts | 306° |
| 2026-04-24 22:51 | 53.81034 | 10.11548 | 5119 ft | 245 kts | 306° |
| 2026-04-24 22:51 | 53.82014 | 10.09186 | 5119 ft | 245 kts | 306° |
| 2026-04-24 22:51 | 53.82993 | 10.06828 | 5122 ft | 243 kts | 306° |
| 2026-04-24 22:51 | 53.83963 | 10.04487 | 5120 ft | 243 kts | 306° |
| 2026-04-24 22:52 | 53.84933 | 10.02140 | 5047 ft | 243 kts | 306° |
| 2026-04-24 22:52 | 53.85890 | 9.99823 | 4724 ft | 243 kts | 306° |
| 2026-04-24 22:52 | 53.86851 | 9.97495 | 4339 ft | 240 kts | 306° |
| 2026-04-24 22:52 | 53.87804 | 9.95191 | 4061 ft | 239 kts | 308° |
| 2026-04-24 22:53 | 53.88945 | 9.93158 | 3987 ft | 238 kts | 321° |
| 2026-04-24 22:53 | 53.90341 | 9.91667 | 3986 ft | 237 kts | 332° |
| 2026-04-24 22:53 | 53.91773 | 9.90452 | 3974 ft | 222 kts | 332° |
| 2026-04-24 22:53 | 53.93097 | 9.89310 | 3984 ft | 207 kts | 331° |
| 2026-04-24 22:54 | 53.94365 | 9.88204 | 3982 ft | 209 kts | 331° |
| 2026-04-24 22:54 | 53.95665 | 9.87065 | 3969 ft | 206 kts | 331° |
| 2026-04-24 22:54 | 53.96921 | 9.85964 | 3966 ft | 207 kts | 331° |
| 2026-04-24 22:54 | 53.98205 | 9.84838 | 3970 ft | 207 kts | 331° |
| 2026-04-24 22:55 | 53.99393 | 9.83489 | 3976 ft | 207 kts | 311° |
| 2026-04-24 22:55 | 54.00013 | 9.81285 | 3981 ft | 210 kts | 289° |
| 2026-04-24 22:55 | 54.00391 | 9.78908 | 3933 ft | 204 kts | 288° |
| 2026-04-24 22:55 | 54.00735 | 9.76631 | 3813 ft | 195 kts | 288° |
| 2026-04-24 22:56 | 54.01059 | 9.74398 | 3459 ft | 196 kts | 282° |
| 2026-04-24 22:56 | 54.00829 | 9.72081 | 3099 ft | 208 kts | 248° |
| 2026-04-24 22:56 | 53.99796 | 9.70419 | 2968 ft | 207 kts | 210° |
| 2026-04-24 22:56 | 53.98413 | 9.70146 | 2964 ft | 200 kts | 170° |
| 2026-04-24 22:57 | 53.97040 | 9.70717 | 2970 ft | 205 kts | 169° |
| 2026-04-24 22:57 | 53.95706 | 9.71412 | 2975 ft | 202 kts | 161° |
| 2026-04-24 22:57 | 53.94409 | 9.72369 | 2979 ft | 203 kts | 156° |
| 2026-04-24 22:57 | 53.93140 | 9.73450 | 2981 ft | 204 kts | 154° |
| 2026-04-24 22:58 | 53.91877 | 9.74556 | 2983 ft | 207 kts | 154° |
| 2026-04-24 22:58 | 53.90434 | 9.75814 | 2987 ft | 254 kts | 154° |
| 2026-04-24 22:58 | 53.88871 | 9.77185 | 2985 ft | 253 kts | 154° |
| 2026-04-24 22:58 | 53.87297 | 9.78558 | 2985 ft | 254 kts | 154° |
| 2026-04-24 22:59 | 53.85721 | 9.79932 | 2986 ft | 255 kts | 154° |
| 2026-04-24 22:59 | 53.84193 | 9.81263 | 2974 ft | 242 kts | 154° |
| 2026-04-24 22:59 | 53.81356 | 9.83730 | 2992 ft | 227 kts | 154° |
| 2026-04-24 23:00 | 53.79961 | 9.84944 | 2994 ft | 225 kts | 154° |
| 2026-04-24 23:00 | 53.78579 | 9.86144 | 2976 ft | 223 kts | 154° |
| 2026-04-24 23:00 | 53.77196 | 9.87345 | 2744 ft | 223 kts | 154° |
| 2026-04-24 23:00 | 53.75840 | 9.88523 | 2430 ft | 211 kts | 154° |
| 2026-04-24 23:01 | 53.74615 | 9.89585 | 2153 ft | 186 kts | 156° |
| 2026-04-24 23:01 | 53.73514 | 9.90541 | 1908 ft | 170 kts | 156° |
| 2026-04-24 23:01 | 53.72498 | 9.91421 | 1680 ft | 159 kts | 157° |
| 2026-04-24 23:01 | 53.71560 | 9.92234 | 1475 ft | 145 kts | 157° |
| 2026-04-24 23:02 | 53.70686 | 9.92987 | 1276 ft | 144 kts | 157° |
| 2026-04-24 23:02 | 53.69813 | 9.93744 | 1075 ft | 138 kts | 158° |
| 2026-04-24 23:02 | 53.68977 | 9.94455 | 892 ft | 134 kts | 158° |
| 2026-04-24 23:02 | 53.68138 | 9.95158 | 674 ft | 140 kts | 158° |
| 2026-04-24 23:03 | 53.67301 | 9.95941 | 475 ft | 135 kts | 157° |
| 2026-04-24 23:03 | 53.66464 | 9.96689 | 363 ft | 133 kts | 158° |
| 2026-04-24 23:03 | 53.65635 | 9.97372 | 133 ft | 131 kts | 157° |
| 2026-04-24 23:03 | 53.64864 | 9.98037 | 49 ft | 109 kts | 151° |
| 2026-04-24 23:04 | 53.64369 | 9.98451 | 49 ft | 50 kts | 152° |
| 2026-04-24 23:04 | 53.64220 | 9.98594 | 48 ft | 17 kts | 152° |
| 2026-04-24 23:04 | 53.64031 | 9.98773 | 50 ft | 34 kts | 141° |
| 2026-04-24 23:04 | 53.63911 | 9.99003 | 48 ft | 0 kts | 127° |
| 2026-04-24 23:05 | 53.63896 | 9.99037 | 50 ft | 7 kts | 126° |
| 2026-04-24 23:06 | 53.63853 | 9.99134 | 48 ft | 6 kts | 126° |
| 2026-04-24 23:06 | 53.63812 | 9.99229 | 51 ft | 13 kts | 126° |
| 2026-04-24 23:06 | 53.63789 | 9.99284 | 50 ft | 1 kts | 125° |
| 2026-04-24 23:06 | 53.63769 | 9.99331 | 51 ft | 9 kts | 125° |
| 2026-04-24 23:07 | 53.63721 | 9.99448 | 49 ft | 16 kts | 125° |
| 2026-04-24 23:07 | 53.63641 | 9.99632 | 51 ft | 23 kts | 126° |
| 2026-04-24 23:07 | 53.63547 | 9.99847 | 47 ft | 15 kts | 126° |
| 2026-04-24 23:07 | 53.63493 | 9.99971 | 48 ft | 0 kts | 127° |
| 2026-04-24 23:08 | 53.63469 | 10.00024 | 50 ft | 7 kts | 127° |
| 2026-04-24 23:08 | 53.63468 | 10.00026 | 51 ft | 0 kts | 127° |
| 2026-04-24 23:08 | 53.63461 | 10.00044 | 51 ft | 11 kts | 126° |
| 2026-04-24 23:08 | 53.63435 | 10.00177 | 51 ft | 10 kts | 109° |
| 2026-04-24 23:09 | 53.63381 | 10.00229 | 49 ft | 11 kts | 174° |
| 2026-04-24 23:09 | 53.63359 | 10.00277 | 50 ft | 11 kts | 98° |
| 2026-04-24 23:09 | 53.63358 | 10.00360 | 51 ft | 0 kts | 86° |
| 2026-04-24 23:09 | 53.63358 | 10.00366 | 51 ft | 0 kts | 86° |